sensor_id;sensor_type;location;lat;lon;timestamp;pressure;altitude;pressure_sealevel;temperature;humidity
62418;BME280;48456;54.242;10.280;2023-04-04T00:00:13;103107.00;;;-3.02;100.00
62418;BME280;48456;54.242;10.280;2023-04-04T00:02:39;103094.56;;;-3.06;100.00
62418;BME280;48456;54.242;10.280;2023-04-04T00:05:06;103097.16;;;-3.06;100.00
62418;BME280;48456;54.242;10.280;2023-04-04T00:07:32;103094.28;;;-3.09;100.00
62418;BME280;48456;54.242;10.280;2023-04-04T00:09:59;103090.91;;;-3.08;100.00
62418;BME280;48456;54.242;10.280;2023-04-04T00:12:25;103094.69;;;-3.04;100.00
62418;BME280;48456;54.242;10.280;2023-04-04T00:14:54;103087.97;;;-3.02;100.00
62418;BME280;48456;54.242;10.280;2023-04-04T00:17:21;103095.72;;;-3.02;100.00
62418;BME280;48456;54.242;10.280;2023-04-04T00:19:47;103090.28;;;-3.05;100.00
62418;BME280;48456;54.242;10.280;2023-04-04T00:22:14;103086.78;;;-3.06;100.00
62418;BME280;48456;54.242;10.280;2023-04-04T00:24:40;103079.38;;;-3.11;100.00
62418;BME280;48456;54.242;10.280;2023-04-04T00:27:06;103075.00;;;-3.13;100.00
62418;BME280;48456;54.242;10.280;2023-04-04T00:29:33;103076.66;;;-3.13;100.00
62418;BME280;48456;54.242;10.280;2023-04-04T00:31:59;103072.41;;;-3.13;100.00
62418;BME280;48456;54.242;10.280;2023-04-04T00:34:26;103076.00;;;-3.10;100.00
62418;BME280;48456;54.242;10.280;2023-04-04T00:36:52;103070.84;;;-3.10;100.00
62418;BME280;48456;54.242;10.280;2023-04-04T00:39:19;103064.63;;;-3.13;100.00
62418;BME280;48456;54.242;10.280;2023-04-04T00:41:47;103074.22;;;-3.11;100.00
62418;BME280;48456;54.242;10.280;2023-04-04T00:44:14;103064.78;;;-3.11;100.00
62418;BME280;48456;54.242;10.280;2023-04-04T00:46:41;103062.28;;;-3.09;100.00
62418;BME280;48456;54.242;10.280;2023-04-04T00:49:07;103061.41;;;-3.10;100.00
62418;BME280;48456;54.242;10.280;2023-04-04T00:51:33;103060.47;;;-3.10;100.00
62418;BME280;48456;54.242;10.280;2023-04-04T00:54:00;103051.69;;;-3.13;100.00
62418;BME280;48456;54.242;10.280;2023-04-04T00:56:27;103049.84;;;-3.14;100.00
62418;BME280;48456;54.242;10.280;2023-04-04T00:58:55;103037.41;;;-3.18;100.00
62418;BME280;48456;54.242;10.280;2023-04-04T01:01:22;103051.47;;;-3.24;100.00
62418;BME280;48456;54.242;10.280;2023-04-04T01:03:51;103045.28;;;-3.27;100.00
62418;BME280;48456;54.242;10.280;2023-04-04T01:06:17;103038.78;;;-3.32;100.00
62418;BME280;48456;54.242;10.280;2023-04-04T01:08:44;103041.88;;;-3.36;100.00
62418;BME280;48456;54.242;10.280;2023-04-04T01:11:12;103044.47;;;-3.36;100.00
62418;BME280;48456;54.242;10.280;2023-04-04T01:13:38;103041.59;;;-3.39;100.00
62418;BME280;48456;54.242;10.280;2023-04-04T01:16:04;103043.41;;;-3.38;100.00
62418;BME280;48456;54.242;10.280;2023-04-04T01:18:31;103037.34;;;-3.38;100.00
62418;BME280;48456;54.242;10.280;2023-04-04T01:21:02;103036.41;;;-3.39;100.00
62418;BME280;48456;54.242;10.280;2023-04-04T01:23:35;103032.28;;;-3.37;100.00
62418;BME280;48456;54.242;10.280;2023-04-04T01:26:07;103030.47;;;-3.38;100.00
62418;BME280;48456;54.242;10.280;2023-04-04T01:28:33;103030.59;;;-3.36;100.00
62418;BME280;48456;54.242;10.280;2023-04-04T01:31:00;103025.72;;;-3.33;100.00
62418;BME280;48456;54.242;10.280;2023-04-04T01:33:28;103026.59;;;-3.33;100.00
62418;BME280;48456;54.242;10.280;2023-04-04T01:38:26;103028.94;;;-3.36;100.00
62418;BME280;48456;54.242;10.280;2023-04-04T01:41:00;103023.75;;;-3.36;100.00
62418;BME280;48456;54.242;10.280;2023-04-04T01:43:30;103018.31;;;-3.39;100.00
62418;BME280;48456;54.242;10.280;2023-04-04T01:46:00;103017.38;;;-3.40;100.00
62418;BME280;48456;54.242;10.280;2023-04-04T01:48:27;103014.94;;;-3.38;100.00
62418;BME280;48456;54.242;10.280;2023-04-04T01:50:54;103015.06;;;-3.36;100.00
62418;BME280;48456;54.242;10.280;2023-04-04T01:53:20;103018.16;;;-3.41;100.00
62418;BME280;48456;54.242;10.280;2023-04-04T01:55:47;103014.56;;;-3.32;100.00
62418;BME280;48456;54.242;10.280;2023-04-04T01:58:13;103020.03;;;-3.29;100.00
62418;BME280;48456;54.242;10.280;2023-04-04T02:00:39;103020.91;;;-3.29;100.00
62418;BME280;48456;54.242;10.280;2023-04-04T02:03:07;103016.38;;;-3.31;100.00
62418;BME280;48456;54.242;10.280;2023-04-04T02:05:33;103012.63;;;-3.35;100.00
62418;BME280;48456;54.242;10.280;2023-04-04T02:07:59;103011.72;;;-3.35;100.00
62418;BME280;48456;54.242;10.280;2023-04-04T02:10:26;103007.44;;;-3.35;100.00
62418;BME280;48456;54.242;10.280;2023-04-04T02:12:52;102994.66;;;-3.33;100.00
62418;BME280;48456;54.242;10.280;2023-04-04T02:15:19;103005.88;;;-3.33;100.00
62418;BME280;48456;54.242;10.280;2023-04-04T02:17:46;102998.25;;;-3.31;100.00
62418;BME280;48456;54.242;10.280;2023-04-04T02:20:12;102998.53;;;-3.28;100.00
62418;BME280;48456;54.242;10.280;2023-04-04T02:22:39;102997.91;;;-3.26;100.00
62418;BME280;48456;54.242;10.280;2023-04-04T02:25:05;102995.94;;;-3.28;100.00
62418;BME280;48456;54.242;10.280;2023-04-04T02:27:32;102992.19;;;-3.32;100.00
62418;BME280;48456;54.242;10.280;2023-04-04T02:29:58;102995.94;;;-3.28;100.00
62418;BME280;48456;54.242;10.280;2023-04-04T02:32:24;102992.31;;;-3.30;100.00
62418;BME280;48456;54.242;10.280;2023-04-04T02:34:51;103002.16;;;-3.26;100.00
62418;BME280;48456;54.242;10.280;2023-04-04T02:37:17;102997.91;;;-3.26;100.00
62418;BME280;48456;54.242;10.280;2023-04-04T02:39:43;103009.03;;;-3.27;100.00
62418;BME280;48456;54.242;10.280;2023-04-04T02:42:10;102998.81;;;-3.25;100.00
62418;BME280;48456;54.242;10.280;2023-04-04T02:44:36;103000.50;;;-3.26;100.00
62418;BME280;48456;54.242;10.280;2023-04-04T02:47:02;103008.25;;;-3.26;100.00
62418;BME280;48456;54.242;10.280;2023-04-04T02:49:29;103004.25;;;-3.22;100.00
62418;BME280;48456;54.242;10.280;2023-04-04T02:51:55;103009.56;;;-3.20;100.00
62418;BME280;48456;54.242;10.280;2023-04-04T02:54:22;103007.09;;;-3.19;100.00
62418;BME280;48456;54.242;10.280;2023-04-04T02:56:49;103001.78;;;-3.20;100.00
62418;BME280;48456;54.242;10.280;2023-04-04T02:59:15;102996.47;;;-3.22;100.00
62418;BME280;48456;54.242;10.280;2023-04-04T03:01:43;102991.19;;;-3.23;100.00
62418;BME280;48456;54.242;10.280;2023-04-04T03:04:09;102989.34;;;-3.24;100.00
62418;BME280;48456;54.242;10.280;2023-04-04T03:06:36;102990.78;;;-3.18;100.00
62418;BME280;48456;54.242;10.280;2023-04-04T03:09:02;102987.03;;;-3.21;100.00
62418;BME280;48456;54.242;10.280;2023-04-04T03:11:30;102982.78;;;-3.21;100.00
62418;BME280;48456;54.242;10.280;2023-04-04T03:13:56;102984.44;;;-3.21;100.00
62418;BME280;48456;54.242;10.280;2023-04-04T03:16:23;102980.56;;;-3.27;100.00
62418;BME280;48456;54.242;10.280;2023-04-04T03:18:49;102986.38;;;-3.29;100.00
62418;BME280;48456;54.242;10.280;2023-04-04T03:21:16;102985.19;;;-3.33;100.00
62418;BME280;48456;54.242;10.280;2023-04-04T03:23:42;102985.06;;;-3.34;100.00
62418;BME280;48456;54.242;10.280;2023-04-04T03:26:08;102990.09;;;-3.36;100.00
62418;BME280;48456;54.242;10.280;2023-04-04T03:28:35;102985.56;;;-3.38;100.00
62418;BME280;48456;54.242;10.280;2023-04-04T03:31:04;102987.25;;;-3.39;100.00
62418;BME280;48456;54.242;10.280;2023-04-04T03:33:32;102991.78;;;-3.36;100.00
62418;BME280;48456;54.242;10.280;2023-04-04T03:36:00;102984.16;;;-3.35;100.00
62418;BME280;48456;54.242;10.280;2023-04-04T03:38:27;102985.31;;;-3.31;100.00
62418;BME280;48456;54.242;10.280;2023-04-04T03:41:03;102984.69;;;-3.29;100.00
62418;BME280;48456;54.242;10.280;2023-04-04T03:43:29;102983.28;;;-3.25;100.00
62418;BME280;48456;54.242;10.280;2023-04-04T03:46:04;102975.66;;;-3.23;100.00
62418;BME280;48456;54.242;10.280;2023-04-04T03:48:31;102982.66;;;-3.22;100.00
62418;BME280;48456;54.242;10.280;2023-04-04T03:50:58;102988.09;;;-3.19;100.00
62418;BME280;48456;54.242;10.280;2023-04-04T03:53:25;102985.22;;;-3.22;100.00
62418;BME280;48456;54.242;10.280;2023-04-04T03:55:51;102988.34;;;-3.16;100.00
62418;BME280;48456;54.242;10.280;2023-04-04T03:58:20;102980.44;;;-3.18;100.00
62418;BME280;48456;54.242;10.280;2023-04-04T04:00:46;102978.63;;;-3.19;100.00
62418;BME280;48456;54.242;10.280;2023-04-04T04:03:12;102975.25;;;-3.18;100.00
62418;BME280;48456;54.242;10.280;2023-04-04T04:05:42;102982.91;;;-3.19;100.00
62418;BME280;48456;54.242;10.280;2023-04-04T04:08:08;102983.66;;;-3.20;100.00
62418;BME280;48456;54.242;10.280;2023-04-04T04:10:34;102984.19;;;-3.24;100.00
62418;BME280;48456;54.242;10.280;2023-04-04T04:13:01;102982.22;;;-3.27;100.00
62418;BME280;48456;54.242;10.280;2023-04-04T04:15:27;102974.31;;;-3.29;100.00
62418;BME280;48456;54.242;10.280;2023-04-04T04:17:54;102974.97;;;-3.31;100.00
62418;BME280;48456;54.242;10.280;2023-04-04T04:20:20;102977.31;;;-3.34;100.00
62418;BME280;48456;54.242;10.280;2023-04-04T04:22:47;102976.38;;;-3.35;100.00
62418;BME280;48456;54.242;10.280;2023-04-04T04:25:15;102971.84;;;-3.37;100.00
62418;BME280;48456;54.242;10.280;2023-04-04T04:27:42;102969.28;;;-3.37;100.00
62418;BME280;48456;54.242;10.280;2023-04-04T04:30:09;102978.03;;;-3.46;100.00
62418;BME280;48456;54.242;10.280;2023-04-04T04:32:36;102985.66;;;-3.47;100.00
62418;BME280;48456;54.242;10.280;2023-04-04T04:35:03;102983.56;;;-3.52;100.00
62418;BME280;48456;54.242;10.280;2023-04-04T04:37:29;102970.34;;;-3.55;100.00
62418;BME280;48456;54.242;10.280;2023-04-04T04:39:55;102963.88;;;-3.60;100.00
62418;BME280;48456;54.242;10.280;2023-04-04T04:42:22;102956.25;;;-3.58;100.00
62418;BME280;48456;54.242;10.280;2023-04-04T04:44:48;102963.09;;;-3.59;100.00
62418;BME280;48456;54.242;10.280;2023-04-04T04:47:15;102961.41;;;-3.58;100.00
62418;BME280;48456;54.242;10.280;2023-04-04T04:49:41;102955.97;;;-3.61;100.00
62418;BME280;48456;54.242;10.280;2023-04-04T04:52:09;102955.06;;;-3.62;100.00
62418;BME280;48456;54.242;10.280;2023-04-04T04:54:36;102960.50;;;-3.59;100.00
62418;BME280;48456;54.242;10.280;2023-04-04T04:57:02;102964.38;;;-3.64;100.00
62418;BME280;48456;54.242;10.280;2023-04-04T04:59:28;102958.69;;;-3.60;100.00
62418;BME280;48456;54.242;10.280;2023-04-04T05:01:55;102960.50;;;-3.59;100.00
62418;BME280;48456;54.242;10.280;2023-04-04T05:04:21;102965.03;;;-3.56;100.00
62418;BME280;48456;54.242;10.280;2023-04-04T05:06:48;102964.16;;;-3.57;100.00
62418;BME280;48456;54.242;10.280;2023-04-04T05:09:14;102972.06;;;-3.55;100.00
62418;BME280;48456;54.242;10.280;2023-04-04T05:11:40;102971.91;;;-3.57;100.00
62418;BME280;48456;54.242;10.280;2023-04-04T05:14:07;102967.38;;;-3.59;100.00
62418;BME280;48456;54.242;10.280;2023-04-04T05:16:33;102965.81;;;-3.57;100.00
62418;BME280;48456;54.242;10.280;2023-04-04T05:18:59;102971.00;;;-3.57;100.00
62418;BME280;48456;54.242;10.280;2023-04-04T05:21:26;102971.13;;;-3.56;100.00
62418;BME280;48456;54.242;10.280;2023-04-04T05:23:53;102971.75;;;-3.58;100.00
62418;BME280;48456;54.242;10.280;2023-04-04T05:26:20;102975.13;;;-3.59;100.00
62418;BME280;48456;54.242;10.280;2023-04-04T05:28:46;102972.78;;;-3.56;100.00
62418;BME280;48456;54.242;10.280;2023-04-04T05:31:13;102972.16;;;-3.54;100.00
62418;BME280;48456;54.242;10.280;2023-04-04T05:33:39;102975.44;;;-3.46;100.00
62418;BME280;48456;54.242;10.280;2023-04-04T05:36:05;102972.50;;;-3.40;100.00
62418;BME280;48456;54.242;10.280;2023-04-04T05:38:32;102979.63;;;-3.37;100.00
62418;BME280;48456;54.242;10.280;2023-04-04T05:40:58;102974.81;;;-3.33;100.00
62418;BME280;48456;54.242;10.280;2023-04-04T05:43:24;102974.81;;;-3.33;100.00
62418;BME280;48456;54.242;10.280;2023-04-04T05:45:51;102971.50;;;-3.32;100.00
62418;BME280;48456;54.242;10.280;2023-04-04T05:48:17;102968.41;;;-3.28;100.00
62418;BME280;48456;54.242;10.280;2023-04-04T05:50:43;102973.81;;;-3.24;100.00
62418;BME280;48456;54.242;10.280;2023-04-04T05:53:10;102976.19;;;-3.17;100.00
62418;BME280;48456;54.242;10.280;2023-04-04T05:55:37;102969.63;;;-3.03;100.00
62418;BME280;48456;54.242;10.280;2023-04-04T05:58:03;102970.28;;;-2.95;100.00
62418;BME280;48456;54.242;10.280;2023-04-04T06:00:29;102968.97;;;-2.90;100.00
62418;BME280;48456;54.242;10.280;2023-04-04T06:02:56;102960.03;;;-2.83;100.00
62418;BME280;48456;54.242;10.280;2023-04-04T06:05:24;102962.66;;;-2.73;100.00
62418;BME280;48456;54.242;10.280;2023-04-04T06:07:50;102958.13;;;-2.65;100.00
62418;BME280;48456;54.242;10.280;2023-04-04T06:10:17;102965.28;;;-2.52;100.00
62418;BME280;48456;54.242;10.280;2023-04-04T06:12:43;102953.72;;;-2.35;100.00
62418;BME280;48456;54.242;10.280;2023-04-04T06:15:09;102958.06;;;-2.03;100.00
62418;BME280;48456;54.242;10.280;2023-04-04T06:17:36;102956.97;;;-1.84;100.00
62418;BME280;48456;54.242;10.280;2023-04-04T06:20:02;102953.19;;;-1.77;100.00
62418;BME280;48456;54.242;10.280;2023-04-04T06:22:30;102958.97;;;-1.59;100.00
62418;BME280;48456;54.242;10.280;2023-04-04T06:24:57;102961.88;;;-1.44;100.00
62418;BME280;48456;54.242;10.280;2023-04-04T06:27:23;102953.88;;;-1.25;100.00
62418;BME280;48456;54.242;10.280;2023-04-04T06:29:49;102961.16;;;-1.09;100.00
62418;BME280;48456;54.242;10.280;2023-04-04T06:32:16;102952.19;;;-1.02;100.00
62418;BME280;48456;54.242;10.280;2023-04-04T06:34:42;102948.97;;;-0.87;100.00
62418;BME280;48456;54.242;10.280;2023-04-04T06:37:09;102958.97;;;-0.70;100.00
62418;BME280;48456;54.242;10.280;2023-04-04T06:39:35;102961.59;;;-0.58;100.00
62418;BME280;48456;54.242;10.280;2023-04-04T06:42:02;102958.25;;;-0.45;100.00
62418;BME280;48456;54.242;10.280;2023-04-04T06:44:29;102954.66;;;-0.23;100.00
62418;BME280;48456;54.242;10.280;2023-04-04T06:46:55;102950.16;;;-0.02;100.00
62418;BME280;48456;54.242;10.280;2023-04-04T06:49:22;102941.91;;;0.16;100.00
62418;BME280;48456;54.242;10.280;2023-04-04T06:51:48;102934.28;;;0.43;100.00
62418;BME280;48456;54.242;10.280;2023-04-04T06:54:16;102941.81;;;0.64;100.00
62418;BME280;48456;54.242;10.280;2023-04-04T06:56:42;102940.50;;;0.83;100.00
62418;BME280;48456;54.242;10.280;2023-04-04T06:59:09;102940.69;;;0.98;100.00
62418;BME280;48456;54.242;10.280;2023-04-04T07:01:37;102946.34;;;1.04;100.00
62418;BME280;48456;54.242;10.280;2023-04-04T07:04:03;102940.59;;;1.22;100.00
62418;BME280;48456;54.242;10.280;2023-04-04T07:06:30;102936.91;;;1.32;100.00
62418;BME280;48456;54.242;10.280;2023-04-04T07:08:57;102943.78;;;1.57;100.00
62418;BME280;48456;54.242;10.280;2023-04-04T07:11:23;102940.31;;;1.83;100.00
62418;BME280;48456;54.242;10.280;2023-04-04T07:13:49;102931.69;;;2.11;100.00
62418;BME280;48456;54.242;10.280;2023-04-04T07:16:16;102934.19;;;2.37;100.00
62418;BME280;48456;54.242;10.280;2023-04-04T07:18:42;102934.78;;;2.46;100.00
62418;BME280;48456;54.242;10.280;2023-04-04T07:21:09;102935.78;;;2.77;100.00
62418;BME280;48456;54.242;10.280;2023-04-04T07:23:35;102929.72;;;2.91;100.00
62418;BME280;48456;54.242;10.280;2023-04-04T07:26:02;102926.44;;;2.80;100.00
62418;BME280;48456;54.242;10.280;2023-04-04T07:28:28;102928.19;;;2.95;100.00
62418;BME280;48456;54.242;10.280;2023-04-04T07:30:57;102928.06;;;3.07;100.00
62418;BME280;48456;54.242;10.280;2023-04-04T07:33:24;102928.19;;;2.95;100.00
62418;BME280;48456;54.242;10.280;2023-04-04T07:35:50;102926.19;;;2.91;100.00
62418;BME280;48456;54.242;10.280;2023-04-04T07:38:18;102927.97;;;3.05;100.00
62418;BME280;48456;54.242;10.280;2023-04-04T07:40:44;102923.34;;;3.01;100.00
62418;BME280;48456;54.242;10.280;2023-04-04T07:43:11;102921.69;;;2.88;100.00
62418;BME280;48456;54.242;10.280;2023-04-04T07:45:37;102924.03;;;2.83;100.00
62418;BME280;48456;54.242;10.280;2023-04-04T07:48:04;102914.91;;;2.63;100.00
62418;BME280;48456;54.242;10.280;2023-04-04T07:50:30;102927.88;;;2.62;100.00
62418;BME280;48456;54.242;10.280;2023-04-04T07:52:57;102920.53;;;2.69;100.00
62418;BME280;48456;54.242;10.280;2023-04-04T07:55:24;102929.09;;;2.67;100.00
62418;BME280;48456;54.242;10.280;2023-04-04T07:57:51;102928.81;;;2.62;100.00
62418;BME280;48456;54.242;10.280;2023-04-04T08:00:17;102932.03;;;2.86;100.00
62418;BME280;48456;54.242;10.280;2023-04-04T08:02:50;102935.31;;;2.97;100.00
62418;BME280;48456;54.242;10.280;2023-04-04T08:05:18;102934.28;;;3.09;100.00
62418;BME280;48456;54.242;10.280;2023-04-04T08:07:45;102923.19;;;3.13;100.00
62418;BME280;48456;54.242;10.280;2023-04-04T08:10:11;102926.53;;;3.25;100.00
62418;BME280;48456;54.242;10.280;2023-04-04T08:12:38;102925.00;;;3.29;100.00
62418;BME280;48456;54.242;10.280;2023-04-04T08:15:04;102925.56;;;3.38;100.00
62418;BME280;48456;54.242;10.280;2023-04-04T08:17:31;102923.66;;;3.51;100.00
62418;BME280;48456;54.242;10.280;2023-04-04T08:19:58;102919.63;;;3.56;100.00
62418;BME280;48456;54.242;10.280;2023-04-04T08:22:24;102921.94;;;3.82;100.00
62418;BME280;48456;54.242;10.280;2023-04-04T08:24:52;102916.50;;;3.94;100.00
62418;BME280;48456;54.242;10.280;2023-04-04T08:27:18;102919.41;;;3.98;100.00
62418;BME280;48456;54.242;10.280;2023-04-04T08:29:44;102913.47;;;3.86;100.00
62418;BME280;48456;54.242;10.280;2023-04-04T08:32:13;102912.53;;;4.00;100.00
62418;BME280;48456;54.242;10.280;2023-04-04T08:34:42;102906.50;;;4.01;100.00
62418;BME280;48456;54.242;10.280;2023-04-04T08:37:09;102905.81;;;4.21;100.00
62418;BME280;48456;54.242;10.280;2023-04-04T08:39:36;102909.88;;;4.64;100.00
62418;BME280;48456;54.242;10.280;2023-04-04T08:42:04;102909.41;;;4.88;100.00
62418;BME280;48456;54.242;10.280;2023-04-04T08:44:31;102904.75;;;4.82;100.00
62418;BME280;48456;54.242;10.280;2023-04-04T08:46:59;102897.03;;;4.68;100.00
62418;BME280;48456;54.242;10.280;2023-04-04T08:49:26;102899.91;;;4.57;100.00
62418;BME280;48456;54.242;10.280;2023-04-04T08:51:53;102898.53;;;4.80;100.00
62418;BME280;48456;54.242;10.280;2023-04-04T08:54:21;102900.72;;;5.05;100.00
62418;BME280;48456;54.242;10.280;2023-04-04T08:56:49;102900.88;;;5.09;100.00
62418;BME280;48456;54.242;10.280;2023-04-04T08:59:18;102894.13;;;5.30;100.00
62418;BME280;48456;54.242;10.280;2023-04-04T09:01:44;102891.38;;;5.45;100.00
62418;BME280;48456;54.242;10.280;2023-04-04T09:04:11;102887.78;;;5.62;100.00
62418;BME280;48456;54.242;10.280;2023-04-04T09:06:37;102885.72;;;5.54;100.00
62418;BME280;48456;54.242;10.280;2023-04-04T09:09:05;102884.88;;;5.55;100.00
62418;BME280;48456;54.242;10.280;2023-04-04T09:11:31;102880.44;;;5.54;100.00
62418;BME280;48456;54.242;10.280;2023-04-04T09:13:58;102888.19;;;5.69;100.00
62418;BME280;48456;54.242;10.280;2023-04-04T09:16:25;102875.19;;;5.91;100.00
62418;BME280;48456;54.242;10.280;2023-04-04T09:18:52;102870.34;;;5.98;100.00
62418;BME280;48456;54.242;10.280;2023-04-04T09:21:18;102870.66;;;6.05;100.00
62418;BME280;48456;54.242;10.280;2023-04-04T09:23:45;102877.53;;;6.21;100.00
62418;BME280;48456;54.242;10.280;2023-04-04T09:26:12;102868.16;;;6.46;100.00
62418;BME280;48456;54.242;10.280;2023-04-04T09:28:38;102875.38;;;6.50;100.00
62418;BME280;48456;54.242;10.280;2023-04-04T09:31:05;102870.09;;;6.50;100.00
62418;BME280;48456;54.242;10.280;2023-04-04T09:33:32;102871.63;;;6.45;100.00
62418;BME280;48456;54.242;10.280;2023-04-04T09:36:01;102874.13;;;6.42;100.00
62418;BME280;48456;54.242;10.280;2023-04-04T09:38:28;102880.69;;;6.52;100.00
62418;BME280;48456;54.242;10.280;2023-04-04T09:40:56;102875.44;;;6.52;100.00
62418;BME280;48456;54.242;10.280;2023-04-04T09:43:23;102872.31;;;6.41;100.00
62418;BME280;48456;54.242;10.280;2023-04-04T09:45:50;102877.44;;;6.19;100.00
62418;BME280;48456;54.242;10.280;2023-04-04T09:48:26;102873.16;;;5.85;100.00
62418;BME280;48456;54.242;10.280;2023-04-04T09:50:53;102878.22;;;5.98;100.00
62418;BME280;48456;54.242;10.280;2023-04-04T09:53:23;102869.50;;;5.81;100.00
62418;BME280;48456;54.242;10.280;2023-04-04T09:55:50;102866.13;;;5.66;100.00
62418;BME280;48456;54.242;10.280;2023-04-04T09:58:18;102864.16;;;5.80;100.00
62418;BME280;48456;54.242;10.280;2023-04-04T10:00:45;102866.19;;;5.85;100.00
62418;BME280;48456;54.242;10.280;2023-04-04T10:03:15;102862.31;;;5.95;100.00
62418;BME280;48456;54.242;10.280;2023-04-04T10:05:45;102864.47;;;6.22;100.00
62418;BME280;48456;54.242;10.280;2023-04-04T10:08:15;102857.13;;;6.53;100.00
62418;BME280;48456;54.242;10.280;2023-04-04T10:10:51;102859.59;;;6.50;100.00
62418;BME280;48456;54.242;10.280;2023-04-04T10:13:35;102856.41;;;6.37;100.00
62418;BME280;48456;54.242;10.280;2023-04-04T10:16:02;102854.75;;;6.40;100.00
62418;BME280;48456;54.242;10.280;2023-04-04T10:18:30;102857.53;;;6.62;100.00
62418;BME280;48456;54.242;10.280;2023-04-04T10:20:57;102850.72;;;6.87;100.00
62418;BME280;48456;54.242;10.280;2023-04-04T10:23:40;102851.97;;;6.96;100.00
62418;BME280;48456;54.242;10.280;2023-04-04T10:26:09;102850.56;;;7.04;100.00
62418;BME280;48456;54.242;10.280;2023-04-04T10:28:36;102854.06;;;7.03;98.38
62418;BME280;48456;54.242;10.280;2023-04-04T10:31:14;102849.53;;;7.00;95.58
62418;BME280;48456;54.242;10.280;2023-04-04T10:36:28;102841.91;;;7.07;95.11
62418;BME280;48456;54.242;10.280;2023-04-04T10:39:03;102836.97;;;7.14;94.92
62418;BME280;48456;54.242;10.280;2023-04-04T10:41:35;102839.19;;;7.25;93.83
62418;BME280;48456;54.242;10.280;2023-04-04T10:44:08;102828.91;;;7.10;95.02
62418;BME280;48456;54.242;10.280;2023-04-04T10:46:37;102830.63;;;7.09;91.93
62418;BME280;48456;54.242;10.280;2023-04-04T10:49:06;102828.66;;;7.25;94.60
62418;BME280;48456;54.242;10.280;2023-04-04T10:51:33;102831.28;;;7.25;93.04
62418;BME280;48456;54.242;10.280;2023-04-04T10:54:14;102813.28;;;7.36;91.27
62418;BME280;48456;54.242;10.280;2023-04-04T10:56:40;102813.47;;;7.62;80.44
62418;BME280;48456;54.242;10.280;2023-04-04T10:59:08;102819.13;;;7.50;81.48
62418;BME280;48456;54.242;10.280;2023-04-04T11:01:45;102816.94;;;7.61;77.90
62418;BME280;48456;54.242;10.280;2023-04-04T11:04:18;102814.88;;;7.53;72.29
62418;BME280;48456;54.242;10.280;2023-04-04T11:12:19;102812.00;;;9.14;70.09
62418;BME280;48456;54.242;10.280;2023-04-04T11:20:07;102805.31;;;9.51;53.03
62418;BME280;48456;54.242;10.280;2023-04-04T11:22:34;102798.31;;;9.52;54.57
62418;BME280;48456;54.242;10.280;2023-04-04T11:27:46;102808.13;;;9.56;49.46
62418;BME280;48456;54.242;10.280;2023-04-04T11:30:13;102805.22;;;9.75;50.06
62418;BME280;48456;54.242;10.280;2023-04-04T11:32:40;102800.22;;;10.14;48.37
62418;BME280;48456;54.242;10.280;2023-04-04T11:35:18;102801.00;;;10.11;45.43
62418;BME280;48456;54.242;10.280;2023-04-04T11:40:18;102799.97;;;9.48;46.13
62418;BME280;48456;54.242;10.280;2023-04-04T11:42:49;102795.31;;;9.41;46.70
62418;BME280;48456;54.242;10.280;2023-04-04T11:45:20;102793.94;;;9.54;48.55
62418;BME280;48456;54.242;10.280;2023-04-04T11:47:50;102793.50;;;9.96;50.49
62418;BME280;48456;54.242;10.280;2023-04-04T11:50:18;102784.44;;;10.48;45.17
62418;BME280;48456;54.242;10.280;2023-04-04T11:52:44;102779.28;;;10.86;42.76
62418;BME280;48456;54.242;10.280;2023-04-04T11:55:17;102782.94;;;10.91;44.01
62418;BME280;48456;54.242;10.280;2023-04-04T11:57:45;102779.00;;;10.75;43.78
62418;BME280;48456;54.242;10.280;2023-04-04T12:00:34;102781.56;;;10.09;45.44
62418;BME280;48456;54.242;10.280;2023-04-04T12:03:05;102780.66;;;10.09;47.97
62418;BME280;48456;54.242;10.280;2023-04-04T12:05:32;102773.22;;;9.39;45.75
62418;BME280;48456;54.242;10.280;2023-04-04T12:07:59;102775.63;;;9.31;46.64
62418;BME280;48456;54.242;10.280;2023-04-04T12:10:28;102771.19;;;9.30;47.07
62418;BME280;48456;54.242;10.280;2023-04-04T12:12:55;102769.94;;;9.18;45.84
62418;BME280;48456;54.242;10.280;2023-04-04T12:15:22;102773.44;;;9.17;46.61
62418;BME280;48456;54.242;10.280;2023-04-04T12:17:48;102770.00;;;9.47;46.93
62418;BME280;48456;54.242;10.280;2023-04-04T12:20:16;102762.16;;;9.80;48.86
62418;BME280;48456;54.242;10.280;2023-04-04T12:22:42;102757.47;;;10.31;44.99
62418;BME280;48456;54.242;10.280;2023-04-04T12:25:12;102760.16;;;10.63;44.42
62418;BME280;48456;54.242;10.280;2023-04-04T12:27:39;102759.00;;;11.22;44.16
62418;BME280;48456;54.242;10.280;2023-04-04T12:30:06;102756.22;;;11.54;42.85
62418;BME280;48456;54.242;10.280;2023-04-04T12:32:43;102763.13;;;11.48;40.53
62418;BME280;48456;54.242;10.280;2023-04-04T12:35:10;102754.16;;;10.38;41.52
62418;BME280;48456;54.242;10.280;2023-04-04T12:37:38;102751.91;;;10.52;41.37
62418;BME280;48456;54.242;10.280;2023-04-04T12:40:06;102747.41;;;10.48;42.43
62418;BME280;48456;54.242;10.280;2023-04-04T12:42:33;102742.09;;;10.80;41.72
62418;BME280;48456;54.242;10.280;2023-04-04T12:45:00;102739.91;;;10.99;41.06
62418;BME280;48456;54.242;10.280;2023-04-04T12:47:27;102736.13;;;10.89;41.08
62418;BME280;48456;54.242;10.280;2023-04-04T12:49:56;102736.03;;;10.52;40.88
62418;BME280;48456;54.242;10.280;2023-04-04T12:52:26;102739.72;;;10.26;41.56
62418;BME280;48456;54.242;10.280;2023-04-04T12:54:57;102730.34;;;11.05;42.14
62418;BME280;48456;54.242;10.280;2023-04-04T12:57:33;102731.75;;;11.66;42.04